Glezen, Indiana
Current Conditions -  °F | °C
As of 5:55 AM on Tuesday 21 Oct 2014 (Local Time) from KDCY Reporting Station
Clear Clear  
Wind Chill: 41°   Ceiling: Unl
Heat Index: 44°   Visibility: 10mi
Dew Point: 43°   Wind: 5mph
Humidity: 99%   Direction: 320°NW
Pressure: 30.03"   Gusts: NA
Location:  38.4723°N, 87.3105°W
Report Text: KDCY 211055Z AUTO 32004KT 10SM CLR 06/06 A3003 RMK AO2 T00640062
Loading
Personal Weather Stations






























Interactive Weather Map
Tropical Storm Tracking
New forecast layout! Learn more

10-Day Weather Forecast

Advertisements
Track Severe Weather on mobile